Data for 10/21/2010

Time Sea-Level Adjusted Pressure Absolute Pressure Temperature Relative Humidity Dew Point   
(mb) (inHg) (mb) (inHg) (C) (F) (%) (C) (F)
00:05 1019 30.09 848 25.04 7.6 45.6 40 -5.2 22.6
00:10 1019 30.09 848 25.04 7.9 46.2 39 -5.2 22.6
00:15 1019 30.09 848 25.04 7.8 46.1 40 -4.9 23.2
00:20 1019 30.09 848 25.04 7.6 45.8 41 -4.9 23.2
00:25 1019 30.09 848 25.04 7.6 45.6 39 -5.5 22.1
00:30 1019 30.09 848 25.04 7.4 45.3 40 -5.2 22.6
00:35 1019 30.09 848 25.04 6.9 44.4 44 -4.5 24
00:40 1019 30.09 848 25.04 6.4 43.6 45 -4.6 23.7
00:45 1019 30.09 848 25.04 6.3 43.3 44 -5 23.1
00:50 1019 30.09 848 25.04 6.5 43.6 44 -4.9 23.2
00:55 1019 30.09 848 25.04 6.3 43.3 46 -4.4 24
01:00 1019 30.09 848 25.04 6 42.8 47 -4.6 23.7
01:05 1019 30.09 848 25.04 6.4 43.5 41 -5.8 21.6
01:10 1019 30.09 848 25.04 7.3 45.1 40 -5.4 22.2
01:15 1018 30.06 848 25.04 7.4 45.4 42 -4.6 23.7
01:20 1019 30.09 848 25.04 7.3 45.1 41 -5.1 22.9
01:25 1019 30.09 848 25.04 7.4 45.2 41 -5.1 22.9
01:30 1019 30.09 848 25.04 7.6 45.6 41 -5 23
01:35 1019 30.09 848 25.04 7.8 46 41 -4.6 23.8
01:40 1019 30.09 848 25.04 7.6 45.7 42 -4.4 24
01:45 1019 30.09 848 25.04 7.3 45.2 43 -4.4 24.1
01:50 1019 30.09 848 25.04 6.9 44.4 43 -5 23.1
01:55 1019 30.09 848 25.04 6.6 43.9 46 -4.1 24.6
02:00 1018 30.06 848 25.04 6 42.8 48 -4.1 24.6
02:05 1019 30.09 848 25.04 6.1 43.1 48 -4 24.8
02:10 1019 30.09 848 25.04 6.4 43.6 47 -4.2 24.5
02:15 1019 30.09 848 25.04 6.5 43.7 46 -4.4 24.1
02:20 1019 30.09 848 25.04 6.7 44.1 45 -4.2 24.4
02:25 1019 30.09 848 25.04 7.1 44.7 44 -4.3 24.2
02:30 1019 30.09 848 25.04 7.1 44.8 44 -4.2 24.4
02:35 1019 30.09 848 25.04 6.7 44.1 45 -4.3 24.2
02:40 1019 30.09 848 25.04 7 44.5 43 -4.6 23.7
02:45 1019 30.09 848 25.04 7.1 44.7 43 -4.6 23.7
02:50 1019 30.09 848 25.04 7.4 45.3 43 -4.5 23.9
02:55 1019 30.09 848 25.04 7.2 45 44 -4.2 24.5
03:00 1019 30.09 848 25.04 6.6 43.9 46 -4.2 24.4
03:05 1019 30.09 848 25.04 6.5 43.7 46 -4.2 24.4
03:10 1019 30.09 848 25.04 6.3 43.3 48 -4 24.7
03:15 1019 30.09 848 25.04 6 42.8 49 -4 24.9
03:20 1019 30.09 848 25.04 5.7 42.3 49 -4.3 24.3
03:25 1019 30.09 848 25.04 5.7 42.2 48 -4.4 24.2
03:30 1018 30.06 848 25.04 6 42.8 46 -4.7 23.5
03:35 1018 30.06 848 25.04 6.5 43.7 46 -4.3 24.3
03:40 1018 30.06 848 25.04 5.8 42.5 51 -3.6 25.6
03:45 1018 30.06 848 25.04 4.9 40.8 51 -4.5 23.9
03:50 1018 30.06 848 25.04 5.2 41.4 52 -3.9 24.9
03:55 1018 30.06 847 25.01 5 40.9 51 -4.4 24.1
04:00 1018 30.06 847 25.01 5.7 42.3 48 -4.5 23.8
04:05 1018 30.06 847 25.01 5.8 42.4 50 -3.9 25
04:10 1018 30.06 847 25.01 5.3 41.5 51 -4.1 24.6
04:15 1018 30.06 847 25.01 5.4 41.7 49 -4.4 24.2
04:20 1018 30.06 847 25.01 5.3 41.6 50 -4.2 24.4
04:25 1018 30.06 847 25.01 5.2 41.4 50 -4.3 24.3
04:30 1018 30.06 847 25.01 5.4 41.6 50 -4.1 24.6
04:35 1018 30.06 847 25.01 5 41.1 51 -4.2 24.4
04:40 1018 30.06 847 25.01 4.9 40.9 53 -3.9 25
04:45 1018 30.06 847 25.01 4.5 40 53 -4.2 24.4
04:50 1018 30.06 847 25.01 4.7 40.5 53 -4.1 24.5
04:55 1018 30.06 847 25.01 4.6 40.4 53 -4 24.8
05:00 1018 30.06 847 25.01 4.9 40.9 53 -3.9 25
05:05 1018 30.06 847 25.01 4.9 40.8 53 -3.9 25
05:10 1018 30.06 847 25.01 4.8 40.7 52 -4.1 24.6
05:15 1018 30.06 847 25.01 5.1 41.2 51 -4.2 24.5
05:20 1018 30.06 847 25.01 5.1 41.2 50 -4.4 24.1
05:25 1018 30.06 847 25.01 5.5 41.9 49 -4.4 24.1
05:30 1018 30.06 847 25.01 5.5 41.9 50 -4.2 24.5
05:35 1018 30.06 847 25.01 5.2 41.3 52 -3.9 25
05:40 1018 30.06 847 25.01 5 41.1 50 -4.5 24
05:45 1018 30.06 847 25.01 5.3 41.5 50 -4.4 24
05:50 1018 30.06 847 25.01 5.7 42.2 48 -4.6 23.8
05:55 1018 30.06 847 25.01 6.2 43.1 46 -4.6 23.7
06:00 1018 30.06 847 25.01 5.7 42.3 49 -4.1 24.6
06:05 1018 30.06 847 25.01 5.7 42.3 47 -4.6 23.7
06:10 1018 30.06 847 25.01 6.2 43.1 46 -4.5 23.9
06:15 1018 30.06 847 25.01 6.3 43.3 46 -4.4 24.1
06:20 1018 30.06 847 25.01 6 42.8 48 -4.2 24.5
06:25 1018 30.06 847 25.01 5.6 42.2 49 -4.2 24.5
06:30 1018 30.06 847 25.01 5.5 41.8 50 -4.1 24.7
06:35 1018 30.06 847 25.01 5.2 41.3 50 -4.4 24.1
06:40 1018 30.06 847 25.01 5.4 41.7 49 -4.4 24
06:45 1018 30.06 847 25.01 5.6 42.1 47 -4.8 23.4
06:50 1018 30.06 847 25.01 5.9 42.6 48 -4.4 24.1
06:55 1018 30.06 847 25.01 5.8 42.5 47 -4.5 23.9
07:00 1018 30.06 847 25.01 6 42.9 47 -4.4 24
07:05 1018 30.06 847 25.01 6.1 43 47 -4.4 24.1
07:10 1018 30.06 847 25.01 6.1 43 47 -4.4 24.1
07:15 1018 30.06 847 25.01 6 42.7 48 -4.3 24.2
07:20 1018 30.06 847 25.01 5.6 42 48 -4.5 23.9
07:25 1018 30.06 847 25.01 5.9 42.7 46 -4.8 23.3
07:30 1018 30.06 847 25.01 6.3 43.4 45 -4.7 23.6
07:35 1018 30.06 847 25.01 6.6 43.9 44 -4.7 23.5
07:40 1018 30.06 847 25.01 6.6 43.9 45 -4.5 23.9
07:45 1018 30.06 847 25.01 5.8 42.4 49 -4.2 24.5
07:50 1018 30.06 847 25.01 5.5 42 48 -4.6 23.6
07:55 1018 30.06 847 25.01 5.4 41.8 49 -4.4 24.1
08:00 1018 30.06 847 25.01 5.2 41.3 50 -4.5 23.9
08:05 1018 30.06 847 25.01 5.1 41.1 50 -4.4 24.1
08:10 1018 30.06 847 25.01 4.7 40.5 51 -4.5 24
08:15 1017 30.03 847 25.01 5.1 41.2 48 -4.9 23.2
08:20 1018 30.06 847 25.01 5.5 41.9 50 -4.2 24.5
08:25 1018 30.06 847 25.01 5.4 41.8 48 -4.8 23.4
08:30 1018 30.06 847 25.01 5.9 42.5 47 -4.4 24
08:35 1018 30.06 847 25.01 5.6 42.1 51 -3.6 25.5
08:40 1018 30.06 847 25.01 5.1 41.2 49 -4.8 23.4
08:45 1018 30.06 847 25.01 6.1 43.1 45 -4.9 23.2
08:50 1018 30.06 847 25.01 6.8 44.2 44 -4.5 23.9
08:55 1018 30.06 847 25.01 6.8 44.3 45 -4.4 24.1
09:00 1018 30.06 847 25.01 7.1 44.7 45 -4.1 24.7
09:05 1018 30.06 847 25.01 6.9 44.4 44 -4.4 24
09:10 1018 30.06 847 25.01 7.1 44.8 45 -4 24.8
09:15 1018 30.06 847 25.01 7 44.6 46 -3.7 25.4
09:20 1018 30.06 847 25.01 7 44.6 47 -3.5 25.7
09:25 1018 30.06 847 25.01 7.4 45.2 47 -3.2 26.2
09:30 1018 30.06 847 25.01 7.9 46.2 44 -3.7 25.3
09:35 1018 30.06 847 25.01 8.3 47 45 -2.9 26.8
09:40 1018 30.06 847 25.01 8.4 47.1 43 -3.3 26
09:45 1018 30.06 847 25.01 8.8 47.8 43 -3.1 26.4
09:50 1018 30.06 847 25.01 9.2 48.5 42 -3.2 26.3
09:55 1018 30.06 847 25.01 9.3 48.8 41 -3.2 26.2
10:00 1018 30.06 847 25.01 10.2 50.4 36 -4.2 24.5
10:05 1018 30.06 847 25.01 10.6 51.1 35 -4.4 24.1
10:10 1017 30.03 847 25.01 11.1 51.9 36 -3.3 26.1
10:15 1017 30.03 847 25.01 11 51.8 34 -4.3 24.2
10:20 1017 30.03 847 25.01 11.5 52.7 34 -3.8 25.1
10:25 1017 30.03 847 25.01 11.7 53.1 33 -4.1 24.7
10:30 1017 30.03 846 24.98 12.3 54.1 32 -4.1 24.7
10:35 1017 30.03 846 24.98 12.4 54.2 33 -3.4 25.9
10:40 1017 30.03 846 24.98 12.8 55 32 -3.4 25.8
10:45 1017 30.03 846 24.98 12.9 55.2 32 -3.5 25.7
10:50 1017 30.03 846 24.98 13 55.4 31 -3.9 25.1
10:55 1017 30.03 846 24.98 13.5 56.4 30 -3.5 25.6
11:00 1017 30.03 846 24.98 13.5 56.3 31 -3.2 26.3
11:05 1017 30.03 846 24.98 12.7 54.8 33 -3.3 26.1
11:10 1017 30.03 846 24.98 13 55.4 30 -4.2 24.4
11:15 1017 30.03 846 24.98 13 55.3 31 -3.8 25.2
11:20 1017 30.03 846 24.98 13.8 56.8 29 -3.8 25.1
11:25 1017 30.03 846 24.98 14.5 58 28 -3.9 24.9
11:30 1017 30.03 846 24.98 14.1 57.4 28 -3.9 25
11:35 1017 30.03 846 24.98 14.2 57.5 28 -4.1 24.7
11:40 1017 30.03 846 24.98 14.5 58.1 28 -3.6 25.5
11:45 1017 30.03 846 24.98 14.7 58.5 28 -3.7 25.4
11:50 1017 30.03 846 24.98 14.6 58.2 29 -3.4 25.9
11:55 1017 30.03 846 24.98 14.9 58.9 28 -3.5 25.8
12:00 1017 30.03 846 24.98 15 58.9 29 -3 26.6
12:05 1017 30.03 846 24.98 15.3 59.6 28 -3.1 26.4
12:10 1017 30.03 846 24.98 15.4 59.6 28 -2.8 27
12:15 1017 30.03 846 24.98 15.6 60.1 28 -3 26.6
12:20 1017 30.03 846 24.98 15.8 60.5 27 -2.8 26.9
12:25 1017 30.03 846 24.98 16.3 61.4 26 -3 26.6
12:30 1017 30.03 846 24.98 16.5 61.6 27 -2.7 27.1
12:35 1017 30.03 846 24.98 16.6 61.9 27 -2.3 27.9
12:40 1016 30 846 24.98 16.5 61.7 27 -2.5 27.6
12:45 1016 30 846 24.98 16.5 61.7 27 -2.5 27.5
12:50 1016 30 846 24.98 16.7 62 26 -2.7 27.2
12:55 1016 30 845 24.95 16.3 61.3 27 -2.4 27.6
13:00 1016 30 845 24.95 15.8 60.5 28 -2.6 27.3
13:05 1016 30 845 24.95 16.1 60.9 26 -3.2 26.2
13:10 1016 30 845 24.95 17.2 62.9 26 -2.2 28.1
13:15 1016 30 845 24.95 17.1 62.8 27 -1.8 28.8
13:20 1016 30 845 24.95 16.8 62.3 28 -1.7 28.9
13:25 1016 30 845 24.95 17.1 62.7 27 -2.1 28.3
13:30 1016 30 845 24.95 17.6 63.8 26 -2.1 28.3
13:35 1016 30 845 24.95 17.6 63.7 27 -1.7 28.9
13:40 1016 30 845 24.95 17.9 64.2 25 -2 28.3
13:45 1016 30 845 24.95 18.7 65.7 23 -2.5 27.5
13:50 1016 30 845 24.95 18.8 65.8 25 -1.7 29
13:55 1016 30 845 24.95 18.2 64.8 25 -2.3 27.9
14:00 1015 29.97 845 24.95 18.9 66 23 -2.8 27
14:05 1015 29.97 845 24.95 18.8 65.8 23 -2.4 27.7
14:10 1015 29.97 845 24.95 18.6 65.6 24 -2.5 27.6
14:15 1015 29.97 844 24.92 18.9 66.1 24 -1.9 28.5
14:20 1015 29.97 844 24.92 18.8 65.9 24 -2 28.4
14:25 1015 29.97 844 24.92 19.2 66.6 23 -2.5 27.5
14:30 1015 29.97 844 24.92 19.3 66.7 22 -2.5 27.5
14:35 1015 29.97 844 24.92 19.3 66.8 22 -2.6 27.3
14:40 1015 29.97 844 24.92 19.4 66.8 22 -2.8 26.9
14:45 1015 29.97 844 24.92 19.5 67 22 -2.5 27.5
14:50 1015 29.97 844 24.92 19.6 67.3 21 -3.1 26.4
14:55 1015 29.97 844 24.92 19.6 67.2 21 -2.9 26.8
15:00 1015 29.97 844 24.92 19.4 66.8 23 -2.4 27.7
15:05 1015 29.97 844 24.92 19 66.3 23 -2.4 27.7
15:10 1015 29.97 844 24.92 19.3 66.8 23 -2.4 27.7
15:15 1015 29.97 844 24.92 20.2 68.4 21 -2.5 27.4
15:20 1015 29.97 844 24.92 20.8 69.4 22 -1.8 28.7
15:25 1015 29.97 844 24.92 20.8 69.4 21 -2.4 27.6
15:30 1015 29.97 844 24.92 20.6 69.1 20 -2.8 27
15:35 1014 29.94 844 24.92 20.3 68.6 21 -2.4 27.6
15:40 1014 29.94 844 24.92 20.1 68.2 21 -2.5 27.5
15:45 1014 29.94 844 24.92 20.4 68.7 21 -2.4 27.7
15:50 1014 29.94 843 24.89 20.6 69 21 -2.2 28
15:55 1014 29.94 843 24.89 20.5 69 22 -2 28.4
16:00 1014 29.94 843 24.89 20.4 68.8 21 -2.3 27.8
16:05 1014 29.94 843 24.89 20.4 68.6 22 -1.8 28.7
16:10 1014 29.94 843 24.89 20.5 68.8 21 -2.6 27.3
16:15 1014 29.94 843 24.89 20.8 69.4 22 -1.4 29.4
16:20 1014 29.94 843 24.89 20.2 68.4 24 -1 30.3
16:25 1014 29.94 843 24.89 19.6 67.4 24 -1.2 29.8
16:30 1014 29.94 843 24.89 19.9 67.9 24 -1 30.2
16:35 1014 29.94 843 24.89 20.1 68.1 24 -1.1 30.1
16:40 1014 29.94 843 24.89 20.1 68.2 24 -1 30.1
16:45 1014 29.94 843 24.89 19.9 67.8 24 -1 30.2
16:50 1014 29.94 843 24.89 19.3 66.7 25 -1.2 29.8
16:55 1014 29.94 843 24.89 19.1 66.3 25 -1.2 29.9
17:00 1014 29.94 843 24.89 18.6 65.5 26 -1.4 29.5
17:05 1014 29.94 843 24.89 18.9 65.9 25 -1.7 29
17:10 1014 29.94 843 24.89 19.7 67.4 24 -1.5 29.4
17:15 1014 29.94 843 24.89 20 68 24 -1.1 30
17:20 1014 29.94 843 24.89 19.9 67.8 24 -1.2 29.9
17:25 1014 29.94 843 24.89 19.5 67.1 24 -1.3 29.6
17:30 1014 29.94 843 24.89 19.1 66.4 25 -1.4 29.5
17:35 1014 29.94 843 24.89 18.7 65.7 26 -1.3 29.6
17:40 1014 29.94 843 24.89 19.3 66.7 23 -2.1 28.3
17:45 1014 29.94 843 24.89 19.2 66.5 24 -1.7 28.9
17:50 1014 29.94 843 24.89 18.9 66.1 25 -1.5 29.3
17:55 1014 29.94 843 24.89 18.8 65.8 25 -1.6 29.1
18:00 1014 29.94 843 24.89 18.4 65.1 25 -2.1 28.2
18:05 1014 29.94 843 24.89 18.1 64.6 26 -1.5 29.4
18:10 1014 29.94 843 24.89 17.5 63.5 28 -1.2 29.9
18:15 1014 29.94 843 24.89 17.4 63.3 27 -1.6 29.1
18:20 1014 29.94 843 24.89 17.1 62.8 29 -1 30.2
18:25 1014 29.94 843 24.89 16.4 61.5 32 -0 31.9
18:30 1014 29.94 843 24.89 15.2 59.4 36 0.5 32.9
18:35 1014 29.94 843 24.89 14.5 58 37 0.2 32.4
18:40 1014 29.94 843 24.89 13.8 56.9 40 0.5 32.9
18:45 1014 29.94 843 24.89 13.4 56.2 41 0.5 33
18:50 1014 29.94 843 24.89 13 55.5 42 0.5 32.8
18:55 1014 29.94 843 24.89 12.7 54.8 41 -0.2 31.7
19:00 1014 29.94 843 24.89 12.2 54 41 -0.5 31
19:05 1014 29.94 843 24.89 12.1 53.7 45 0.6 33
19:10 1014 29.94 843 24.89 11.9 53.4 43 -0.2 31.6
19:15 1014 29.94 843 24.89 11.4 52.5 47 0.4 32.8
19:20 1014 29.94 843 24.89 10.8 51.5 47 -0 31.9
19:25 1014 29.94 843 24.89 10.8 51.5 46 -0.4 31.3
19:30 1014 29.94 843 24.89 10.9 51.6 43 -1.3 29.7
19:35 1014 29.94 843 24.89 11.1 52 43 -0.9 30.5
19:40 1014 29.94 843 24.89 11 51.9 41 -1.8 28.8
19:45 1014 29.94 843 24.89 11 51.9 41 -1.7 29
19:50 1014 29.94 843 24.89 11 51.9 39 -2.2 28
19:55 1014 29.94 843 24.89 11.3 52.3 39 -2.2 28.1
20:00 1014 29.94 843 24.89 11 51.8 40 -1.9 28.5
20:05 1014 29.94 843 24.89 10.8 51.4 40 -2.3 27.9
20:10 1014 29.94 843 24.89 10.9 51.6 39 -2.4 27.8
20:15 1014 29.94 843 24.89 11 51.7 40 -2.2 28
20:20 1014 29.94 843 24.89 11.1 51.9 39 -2.2 28.1
20:25 1014 29.94 843 24.89 10.9 51.7 39 -2.3 27.8
20:30 1014 29.94 843 24.89 11 51.8 39 -2.3 27.8
20:35 1014 29.94 843 24.89 11.1 52 39 -2.4 27.7
20:40 1014 29.94 843 24.89 11 51.9 38 -2.6 27.2
20:45 1014 29.94 843 24.89 11.3 52.3 37 -2.8 27
20:50 1014 29.94 843 24.89 11.6 52.8 37 -2.6 27.3
20:55 1014 29.94 843 24.89 11.6 52.9 37 -2.6 27.2
21:00 1014 29.94 843 24.89 11.6 52.8 37 -2.8 27
21:05 1014 29.94 843 24.89 11.4 52.6 37 -2.8 26.9
21:10 1014 29.94 843 24.89 11.4 52.4 37 -2.8 26.9
21:15 1014 29.94 843 24.89 11.3 52.4 37 -2.8 26.9
21:20 1014 29.94 843 24.89 11.2 52.1 38 -2.7 27.1
21:25 1014 29.94 843 24.89 10.7 51.2 39 -2.6 27.3
21:30 1014 29.94 843 24.89 10.5 50.9 39 -2.9 26.8
21:35 1014 29.94 843 24.89 10.6 51 38 -3 26.6
21:40 1014 29.94 843 24.89 10.6 51 39 -2.6 27.3
21:45 1014 29.94 843 24.89 10.3 50.6 40 -2.6 27.4
21:50 1014 29.94 843 24.89 10.2 50.3 41 -2.6 27.3
21:55 1014 29.94 843 24.89 10.1 50.2 41 -2.5 27.5
22:00 1014 29.94 843 24.89 10.3 50.5 40 -2.6 27.3
22:05 1014 29.94 843 24.89 10.3 50.5 40 -2.6 27.3
22:10 1014 29.94 843 24.89 10.3 50.5 40 -2.6 27.2
22:15 1014 29.94 843 24.89 10.3 50.5 41 -2.5 27.5
22:20 1014 29.94 843 24.89 10.2 50.3 40 -2.7 27.1
22:25 1014 29.94 843 24.89 10.5 50.8 39 -2.8 27
22:30 1014 29.94 843 24.89 10.5 50.9 40 -2.4 27.6
22:35 1014 29.94 843 24.89 10.1 50.1 41 -2.5 27.5
22:40 1014 29.94 843 24.89 10.1 50.2 41 -2.6 27.2
22:45 1014 29.94 843 24.89 10.2 50.3 41 -2.5 27.4
22:50 1014 29.94 843 24.89 10.2 50.3 40 -2.6 27.2
22:55 1014 29.94 843 24.89 9.8 49.6 44 -1.8 28.8
23:00 1014 29.94 843 24.89 9 48.3 46 -1.8 28.7
23:05 1014 29.94 843 24.89 8.6 47.6 48 -1.9 28.7
23:10 1014 29.94 843 24.89 8.1 46.6 50 -1.8 28.8
23:15 1014 29.94 843 24.89 7.9 46.2 49 -2.1 28.2
23:20 1014 29.94 843 24.89 8.2 46.7 49 -1.9 28.5
23:25 1014 29.94 843 24.89 8.1 46.6 49 -2 28.3
23:30 1014 29.94 843 24.89 8 46.5 49 -1.9 28.6
23:35 1014 29.94 843 24.89 7.7 45.9 50 -2.1 28.3
23:40 1014 29.94 843 24.89 7.8 46.1 49 -2.1 28.3
23:45 1014 29.94 843 24.89 7.9 46.3 50 -1.9 28.5
23:50 1014 29.94 843 24.89 7.7 45.9 51 -1.8 28.8
23:55 1014 29.94 844 24.92 7.5 45.5 52 -1.7 28.9
24:00 1014 29.94 844 24.92 7.3 45.1 52 -1.9 28.6